createdAt,value
2022-08-26T00:01:57.465Z,19.01
2022-08-26T00:04:26.307Z,19.07
2022-08-26T00:06:56.030Z,19.01
2022-08-26T00:09:25.069Z,19.01
2022-08-26T00:11:54.431Z,19.01
2022-08-26T00:14:27.174Z,18.96
2022-08-26T00:16:57.398Z,18.91
2022-08-26T00:19:25.420Z,18.90
2022-08-26T00:21:53.026Z,18.85
2022-08-26T00:24:21.861Z,18.83
2022-08-26T00:26:50.053Z,18.88
2022-08-26T00:29:19.794Z,18.84
2022-08-26T00:31:49.055Z,18.80
2022-08-26T00:34:19.377Z,18.89
2022-08-26T00:36:51.851Z,19.05
2022-08-26T00:39:20.553Z,19.11
2022-08-26T00:41:48.710Z,19.23
2022-08-26T00:44:17.125Z,19.25
2022-08-26T00:46:53.920Z,19.16
2022-08-26T00:49:47.792Z,19.21
2022-08-26T00:52:20.855Z,19.16
2022-08-26T00:55:08.018Z,19.13
2022-08-26T00:57:37.137Z,19.03
2022-08-26T01:00:12.728Z,19.01
2022-08-26T01:02:40.966Z,18.91
2022-08-26T01:05:15.328Z,18.87
2022-08-26T01:07:42.816Z,18.90
2022-08-26T01:10:19.336Z,18.86
2022-08-26T01:12:52.906Z,18.92
2022-08-26T01:15:26.580Z,19.00
2022-08-26T01:17:59.031Z,19.00
2022-08-26T01:20:52.179Z,18.95
2022-08-26T01:23:40.425Z,18.85
2022-08-26T01:26:35.016Z,18.90
2022-08-26T01:29:05.849Z,18.86
2022-08-26T01:31:39.085Z,18.84
2022-08-26T01:34:29.549Z,18.76
2022-08-26T01:37:16.088Z,18.75
2022-08-26T01:39:48.809Z,18.75
2022-08-26T01:42:19.044Z,18.77
2022-08-26T01:45:19.945Z,18.76
2022-08-26T01:47:56.934Z,18.74
2022-08-26T01:50:32.778Z,18.70
2022-08-26T01:53:06.637Z,18.59
2022-08-26T01:55:36.738Z,18.53
2022-08-26T01:58:20.976Z,18.51
2022-08-26T02:00:48.843Z,18.51
2022-08-26T02:03:21.650Z,18.54
2022-08-26T02:05:53.915Z,18.55
2022-08-26T02:08:42.118Z,18.56
2022-08-26T02:11:11.141Z,18.46
2022-08-26T02:13:46.219Z,18.36
2022-08-26T02:16:20.167Z,18.31
2022-08-26T02:18:48.964Z,18.35
2022-08-26T02:21:20.541Z,18.36
2022-08-26T02:23:47.940Z,18.40
2022-08-26T02:26:21.897Z,18.40
2022-08-26T02:28:51.764Z,18.34
2022-08-26T02:31:19.975Z,18.32
2022-08-26T02:33:48.280Z,18.31
2022-08-26T02:36:25.102Z,18.28
2022-08-26T02:38:56.403Z,18.22
2022-08-26T02:41:24.038Z,18.21
2022-08-26T02:43:52.108Z,18.18
2022-08-26T02:46:27.840Z,18.19
2022-08-26T02:48:58.270Z,18.19
2022-08-26T02:51:25.735Z,18.16
2022-08-26T02:53:53.341Z,18.11
2022-08-26T02:56:20.649Z,18.06
2022-08-26T02:58:47.940Z,18.07
2022-08-26T03:01:30.015Z,18.05
2022-08-26T03:03:58.857Z,18.02
2022-08-26T03:06:26.155Z,18.00
2022-08-26T03:08:54.018Z,18.04
2022-08-26T03:11:21.821Z,17.94
2022-08-26T03:13:49.348Z,17.99
2022-08-26T03:16:18.677Z,17.96
2022-08-26T03:18:47.026Z,17.94
2022-08-26T03:21:21.052Z,17.94
2022-08-26T03:23:48.615Z,17.90
2022-08-26T03:26:16.906Z,17.88
2022-08-26T03:29:03.045Z,17.88
2022-08-26T03:31:30.876Z,17.95
2022-08-26T03:33:59.547Z,17.91
2022-08-26T03:36:27.304Z,17.86
2022-08-26T03:38:54.660Z,17.86
2022-08-26T03:41:22.293Z,17.84
2022-08-26T03:43:51.046Z,17.83
2022-08-26T03:46:20.673Z,17.81
2022-08-26T03:48:48.471Z,17.76
2022-08-26T03:51:20.249Z,17.69
2022-08-26T03:53:48.532Z,17.71
2022-08-26T03:56:15.873Z,17.71
2022-08-26T03:58:44.661Z,17.73
2022-08-26T04:01:16.238Z,17.79
2022-08-26T04:04:00.051Z,17.83
2022-08-26T04:07:00.826Z,17.81
2022-08-26T04:09:28.586Z,17.83
2022-08-26T04:11:58.719Z,17.84
2022-08-26T04:14:28.316Z,17.87
2022-08-26T04:16:56.499Z,17.94
2022-08-26T04:19:26.092Z,18.05
2022-08-26T04:21:54.109Z,18.13
2022-08-26T04:24:24.658Z,18.19
2022-08-26T04:26:52.037Z,18.34
2022-08-26T04:29:24.584Z,18.47
2022-08-26T04:31:55.435Z,18.64
2022-08-26T04:34:27.240Z,18.78
2022-08-26T04:36:58.033Z,18.99
2022-08-26T04:39:25.753Z,19.17
2022-08-26T04:41:55.961Z,19.36
2022-08-26T04:44:28.381Z,19.60
2022-08-26T04:46:56.165Z,19.71
2022-08-26T04:49:23.806Z,19.84
2022-08-26T04:51:53.832Z,19.85
2022-08-26T04:54:22.165Z,20.05
2022-08-26T04:56:50.806Z,20.29
2022-08-26T04:59:18.693Z,20.56
2022-08-26T05:01:49.344Z,20.67
2022-08-26T05:04:20.279Z,20.94
2022-08-26T05:06:50.969Z,21.20
2022-08-26T05:09:19.665Z,21.31
2022-08-26T05:11:52.407Z,21.05
2022-08-26T05:14:23.391Z,21.58
2022-08-26T05:16:52.044Z,21.98
2022-08-26T05:19:19.812Z,21.94
2022-08-26T05:21:49.449Z,22.49
2022-08-26T05:24:18.033Z,23.24
2022-08-26T05:26:47.031Z,23.76
2022-08-26T05:29:16.814Z,24.29
2022-08-26T05:31:44.466Z,24.42
2022-08-26T05:34:12.741Z,24.70
2022-08-26T05:36:40.248Z,24.86
2022-08-26T05:39:10.422Z,24.63
2022-08-26T05:41:41.176Z,24.48
2022-08-26T05:44:12.802Z,25.20
2022-08-26T05:46:44.840Z,25.72
2022-08-26T05:49:14.869Z,25.92
2022-08-26T05:51:47.704Z,26.04
2022-08-26T05:54:21.866Z,26.39
2022-08-26T05:56:53.309Z,27.14
2022-08-26T05:59:21.376Z,27.53
2022-08-26T06:01:53.542Z,27.90
2022-08-26T06:04:21.918Z,27.97
2022-08-26T06:06:49.261Z,28.43
2022-08-26T06:09:18.632Z,28.43
2022-08-26T06:11:46.225Z,28.74
2022-08-26T06:14:13.572Z,29.11
2022-08-26T06:16:45.128Z,29.31
2022-08-26T06:19:15.722Z,29.79
2022-08-26T06:21:54.108Z,30.41
2022-08-26T06:24:40.932Z,30.96
2022-08-26T06:27:13.476Z,31.26
2022-08-26T06:29:41.915Z,31.28
2022-08-26T06:32:09.238Z,31.73
2022-08-26T06:34:36.797Z,31.82
2022-08-26T06:37:06.265Z,32.01
2022-08-26T06:39:34.144Z,32.78
2022-08-26T06:42:03.083Z,33.05
2022-08-26T06:44:34.617Z,33.18
2022-08-26T06:47:02.013Z,33.75
2022-08-26T06:49:29.287Z,33.88
2022-08-26T06:52:00.116Z,34.36
2022-08-26T06:54:31.808Z,34.05
2022-08-26T06:56:59.781Z,34.48
2022-08-26T06:59:27.324Z,34.22
2022-08-26T07:01:55.094Z,34.61
2022-08-26T07:04:24.669Z,34.95
2022-08-26T07:06:53.531Z,34.94
2022-08-26T07:09:23.814Z,36.04
2022-08-26T07:11:52.734Z,36.32
2022-08-26T07:14:21.895Z,36.62
2022-08-26T07:16:52.595Z,36.05
2022-08-26T07:19:30.545Z,36.48
2022-08-26T07:22:05.873Z,36.03
2022-08-26T07:24:36.830Z,36.68
2022-08-26T07:27:09.562Z,37.09
2022-08-26T07:29:39.513Z,37.45
2022-08-26T07:32:08.463Z,37.55
2022-08-26T07:34:38.627Z,38.02
2022-08-26T07:37:08.923Z,37.68
2022-08-26T07:39:37.302Z,36.97
2022-08-26T07:42:07.518Z,36.14
2022-08-26T07:44:38.263Z,37.10
2022-08-26T07:47:10.523Z,37.27
2022-08-26T07:49:55.507Z,38.28
2022-08-26T07:52:26.782Z,38.19
2022-08-26T07:54:59.823Z,36.70
2022-08-26T07:57:28.202Z,36.87
2022-08-26T07:59:56.678Z,38.09
2022-08-26T08:02:26.628Z,38.12
2022-08-26T08:04:54.953Z,37.95
2022-08-26T08:07:38.562Z,38.85
2022-08-26T08:10:13.819Z,38.30
2022-08-26T08:12:42.207Z,38.46
2022-08-26T08:15:13.437Z,38.30
2022-08-26T08:17:43.610Z,38.41
2022-08-26T08:20:12.744Z,38.63
2022-08-26T08:22:40.473Z,38.45
2022-08-26T08:25:08.357Z,38.36
2022-08-26T08:27:40.875Z,39.02
2022-08-26T08:30:10.009Z,40.45
2022-08-26T08:32:43.758Z,40.79
2022-08-26T08:35:14.532Z,41.20
2022-08-26T08:37:43.835Z,41.50
2022-08-26T08:40:17.438Z,39.57
2022-08-26T08:43:03.671Z,39.84
2022-08-26T08:45:47.081Z,40.65
2022-08-26T08:48:35.677Z,40.46
2022-08-26T08:51:23.591Z,40.82
2022-08-26T08:53:54.722Z,41.79
2022-08-26T08:56:39.024Z,40.52
2022-08-26T08:59:27.348Z,40.66
2022-08-26T09:02:20.800Z,40.37
2022-08-26T09:05:22.148Z,40.85
2022-08-26T09:07:57.794Z,40.30
2022-08-26T09:10:40.747Z,40.30
2022-08-26T09:13:16.865Z,41.54
2022-08-26T09:16:20.391Z,40.89
2022-08-26T09:19:10.896Z,39.84
2022-08-26T09:21:38.750Z,40.87
2022-08-26T09:24:07.634Z,41.10
2022-08-26T09:26:48.100Z,41.98
2022-08-26T09:29:27.231Z,42.23
2022-08-26T09:32:24.783Z,41.45
2022-08-26T09:35:01.320Z,41.71
2022-08-26T09:37:43.839Z,42.44
2022-08-26T09:40:27.067Z,41.92
2022-08-26T09:43:10.738Z,40.98
2022-08-26T09:45:41.541Z,40.85
2022-08-26T09:48:36.370Z,40.21
2022-08-26T09:51:42.545Z,39.71
2022-08-26T09:54:30.325Z,40.79
2022-08-26T09:57:19.559Z,40.49
2022-08-26T09:59:49.404Z,40.52
2022-08-26T10:02:33.999Z,41.03
2022-08-26T10:05:09.537Z,41.50
2022-08-26T10:07:51.103Z,39.89
2022-08-26T10:10:41.157Z,41.47
2022-08-26T10:13:32.172Z,42.52
2022-08-26T10:16:11.677Z,42.58
2022-08-26T10:18:45.667Z,41.82
2022-08-26T10:21:45.597Z,41.35
2022-08-26T10:24:20.822Z,42.09
2022-08-26T10:27:06.027Z,41.60
2022-08-26T10:29:48.514Z,42.12
2022-08-26T10:32:28.203Z,42.89
2022-08-26T10:34:55.619Z,42.89
2022-08-26T10:37:31.220Z,42.17
2022-08-26T10:40:18.321Z,42.13
2022-08-26T10:43:01.701Z,42.83
2022-08-26T10:45:49.936Z,41.62
2022-08-26T10:48:35.479Z,42.06
2022-08-26T10:51:04.530Z,42.35
2022-08-26T10:53:55.893Z,41.26
2022-08-26T10:56:48.490Z,41.32
2022-08-26T10:59:21.268Z,41.23
2022-08-26T11:02:22.757Z,40.65
2022-08-26T11:05:03.052Z,40.68
2022-08-26T11:07:41.008Z,40.60
2022-08-26T11:10:19.253Z,40.85
2022-08-26T11:13:07.058Z,40.61
2022-08-26T11:15:40.180Z,40.31
2022-08-26T11:18:11.332Z,40.31
2022-08-26T11:20:47.105Z,39.29
2022-08-26T11:23:20.759Z,39.25
2022-08-26T11:26:10.294Z,39.38
2022-08-26T11:28:50.391Z,39.28
2022-08-26T11:31:27.155Z,38.59
2022-08-26T11:33:58.042Z,37.98
2022-08-26T11:36:56.300Z,37.47
2022-08-26T11:39:54.960Z,36.77
2022-08-26T11:42:35.072Z,36.19
2022-08-26T11:45:37.651Z,36.76
2022-08-26T11:48:29.104Z,36.32
2022-08-26T11:51:13.431Z,35.76
2022-08-26T11:53:47.192Z,36.21
2022-08-26T11:56:31.667Z,36.23
2022-08-26T11:59:03.980Z,35.36
2022-08-26T12:01:39.221Z,35.73
2022-08-26T12:04:12.077Z,35.72
2022-08-26T12:06:48.119Z,35.50
2022-08-26T12:09:36.341Z,35.23
2022-08-26T12:12:21.828Z,34.78
2022-08-26T12:14:50.200Z,34.39
2022-08-26T12:17:26.732Z,33.92
2022-08-26T12:19:54.179Z,33.48
2022-08-26T12:22:30.053Z,33.30
2022-08-26T12:25:06.135Z,33.16
2022-08-26T12:27:43.225Z,32.48
2022-08-26T12:30:20.218Z,32.13
2022-08-26T12:32:57.804Z,32.29
2022-08-26T12:35:28.916Z,32.36
2022-08-26T12:37:57.707Z,32.12
2022-08-26T12:40:33.110Z,31.91
2022-08-26T12:43:05.362Z,31.32
2022-08-26T12:45:44.098Z,31.46
2022-08-26T12:48:24.690Z,31.54
2022-08-26T12:50:52.576Z,31.38
2022-08-26T12:53:31.874Z,30.99
2022-08-26T12:56:18.295Z,31.06
2022-08-26T12:58:59.866Z,31.22
2022-08-26T13:01:27.416Z,31.18
2022-08-26T13:03:54.962Z,31.20
2022-08-26T13:06:40.468Z,31.22
2022-08-26T13:09:10.455Z,31.36
2022-08-26T13:11:40.499Z,30.67
2022-08-26T13:14:21.067Z,30.91
2022-08-26T13:16:53.043Z,30.66
2022-08-26T13:19:23.878Z,30.76
2022-08-26T13:22:00.075Z,30.68
2022-08-26T13:24:38.653Z,30.55
2022-08-26T13:27:08.953Z,30.85
2022-08-26T13:29:36.812Z,30.66
2022-08-26T13:32:06.646Z,30.82
2022-08-26T13:34:35.313Z,30.67
2022-08-26T13:37:03.020Z,30.61
2022-08-26T13:39:30.499Z,30.25
2022-08-26T13:41:57.994Z,30.22
2022-08-26T13:44:25.344Z,30.10
2022-08-26T13:46:52.698Z,30.13
2022-08-26T13:49:20.126Z,30.14
2022-08-26T13:51:47.486Z,30.47
2022-08-26T13:54:14.989Z,30.62
2022-08-26T13:56:42.394Z,30.66
2022-08-26T13:59:10.000Z,30.58
2022-08-26T14:01:40.102Z,30.58
2022-08-26T14:04:08.778Z,30.50
2022-08-26T14:06:36.293Z,30.17
2022-08-26T14:09:04.858Z,29.87
2022-08-26T14:11:39.037Z,29.99
2022-08-26T14:14:19.666Z,29.95
2022-08-26T14:16:59.803Z,29.98
2022-08-26T14:19:30.097Z,30.15
2022-08-26T14:21:57.562Z,30.06
2022-08-26T14:24:25.004Z,30.18
2022-08-26T14:26:52.299Z,30.31
2022-08-26T14:29:19.840Z,30.18
2022-08-26T14:31:47.219Z,30.14
2022-08-26T14:34:14.960Z,29.96
2022-08-26T14:36:42.455Z,30.01
2022-08-26T14:39:13.145Z,30.07
2022-08-26T14:41:53.901Z,29.69
2022-08-26T14:44:29.308Z,29.70
2022-08-26T14:46:57.121Z,29.64
2022-08-26T14:49:27.299Z,29.63
2022-08-26T14:51:55.324Z,29.55
2022-08-26T14:54:22.630Z,29.49
2022-08-26T14:56:59.682Z,29.56
2022-08-26T14:59:31.173Z,29.47
2022-08-26T15:02:00.517Z,29.51
2022-08-26T15:04:28.567Z,29.46
2022-08-26T15:06:59.120Z,29.34
2022-08-26T15:09:29.059Z,29.21
2022-08-26T15:11:56.602Z,29.04
2022-08-26T15:14:24.517Z,29.03
2022-08-26T15:16:56.004Z,28.93
2022-08-26T15:19:26.410Z,28.83
2022-08-26T15:21:53.972Z,28.77
2022-08-26T15:24:25.994Z,28.69
2022-08-26T15:26:53.828Z,28.75
2022-08-26T15:29:22.313Z,28.66
2022-08-26T15:31:50.266Z,28.62
2022-08-26T15:34:18.223Z,28.54
2022-08-26T15:36:47.939Z,28.62
2022-08-26T15:39:17.217Z,28.58
2022-08-26T15:41:45.486Z,28.61
2022-08-26T15:44:14.419Z,28.51
2022-08-26T15:46:42.263Z,28.42
2022-08-26T15:49:16.994Z,28.31
2022-08-26T15:51:48.009Z,28.21
2022-08-26T15:54:17.730Z,28.08
2022-08-26T15:56:47.926Z,27.94
2022-08-26T15:59:15.912Z,27.82
2022-08-26T16:01:44.053Z,27.67
2022-08-26T16:04:12.050Z,27.62
2022-08-26T16:06:41.641Z,27.51
2022-08-26T16:09:10.019Z,27.50
2022-08-26T16:11:38.626Z,27.48
2022-08-26T16:14:07.816Z,27.49
2022-08-26T16:16:42.107Z,27.37
2022-08-26T16:19:09.466Z,27.15
2022-08-26T16:21:36.675Z,27.08
2022-08-26T16:24:05.001Z,27.03
2022-08-26T16:26:35.044Z,26.95
2022-08-26T16:29:11.355Z,26.85
2022-08-26T16:31:39.548Z,26.74
2022-08-26T16:34:08.676Z,26.63
2022-08-26T16:36:38.635Z,26.52
2022-08-26T16:39:07.715Z,26.38
2022-08-26T16:41:35.296Z,26.34
2022-08-26T16:44:03.235Z,26.31
2022-08-26T16:46:30.993Z,26.26
2022-08-26T16:48:59.543Z,26.18
2022-08-26T16:51:28.270Z,26.07
2022-08-26T16:53:57.629Z,25.89
2022-08-26T16:56:33.725Z,25.68
2022-08-26T16:59:07.235Z,25.53
2022-08-26T17:01:34.975Z,25.38
2022-08-26T17:04:02.450Z,25.23
2022-08-26T17:06:29.864Z,25.11
2022-08-26T17:08:57.230Z,25.03
2022-08-26T17:11:24.616Z,24.92
2022-08-26T17:13:51.925Z,24.84
2022-08-26T17:16:22.262Z,24.78
2022-08-26T17:18:52.143Z,24.59
2022-08-26T17:21:19.515Z,24.42
2022-08-26T17:23:46.977Z,24.34
2022-08-26T17:26:14.334Z,24.29
2022-08-26T17:28:42.105Z,24.09
2022-08-26T17:31:12.739Z,24.08
2022-08-26T17:33:41.080Z,24.00
2022-08-26T17:36:09.586Z,23.92
2022-08-26T17:38:38.855Z,23.86
2022-08-26T17:41:12.376Z,23.70
2022-08-26T17:43:40.802Z,23.60
2022-08-26T17:46:11.401Z,23.57
2022-08-26T17:48:41.150Z,23.44
2022-08-26T17:51:15.629Z,23.32
2022-08-26T17:53:43.692Z,23.28
2022-08-26T17:56:14.359Z,23.21
2022-08-26T17:58:48.005Z,23.15
2022-08-26T18:01:22.138Z,22.99
2022-08-26T18:03:50.163Z,22.79
